sensor_id;sensor_type;location;lat;lon;timestamp;P1;durP1;ratioP1;P2;durP2;ratioP2
37997;SDS011;24079;51.824;4.682;2023-06-26T00:02:02;12.68;;;5.13;;
37997;SDS011;24079;51.824;4.682;2023-06-26T00:04:28;9.68;;;6.00;;
37997;SDS011;24079;51.824;4.682;2023-06-26T00:06:54;8.82;;;5.55;;
37997;SDS011;24079;51.824;4.682;2023-06-26T00:09:21;9.15;;;5.55;;
37997;SDS011;24079;51.824;4.682;2023-06-26T00:11:47;10.50;;;5.47;;
37997;SDS011;24079;51.824;4.682;2023-06-26T00:14:13;9.00;;;5.20;;
37997;SDS011;24079;51.824;4.682;2023-06-26T00:16:39;10.63;;;5.07;;
37997;SDS011;24079;51.824;4.682;2023-06-26T00:19:05;7.57;;;4.65;;
37997;SDS011;24079;51.824;4.682;2023-06-26T00:21:31;11.85;;;5.03;;
37997;SDS011;24079;51.824;4.682;2023-06-26T00:23:57;9.50;;;5.05;;
37997;SDS011;24079;51.824;4.682;2023-06-26T00:26:23;10.77;;;5.13;;
37997;SDS011;24079;51.824;4.682;2023-06-26T00:28:49;12.80;;;5.90;;
37997;SDS011;24079;51.824;4.682;2023-06-26T00:31:14;15.65;;;6.18;;
37997;SDS011;24079;51.824;4.682;2023-06-26T00:33:40;12.80;;;5.70;;
37997;SDS011;24079;51.824;4.682;2023-06-26T00:36:06;13.75;;;5.50;;
37997;SDS011;24079;51.824;4.682;2023-06-26T00:38:31;10.13;;;5.70;;
37997;SDS011;24079;51.824;4.682;2023-06-26T00:40:57;12.27;;;5.18;;
37997;SDS011;24079;51.824;4.682;2023-06-26T00:43:22;12.43;;;5.15;;
37997;SDS011;24079;51.824;4.682;2023-06-26T00:45:48;13.32;;;5.05;;
37997;SDS011;24079;51.824;4.682;2023-06-26T00:48:14;11.73;;;4.72;;
37997;SDS011;24079;51.824;4.682;2023-06-26T00:50:40;12.77;;;5.20;;
37997;SDS011;24079;51.824;4.682;2023-06-26T00:53:07;11.77;;;4.50;;
37997;SDS011;24079;51.824;4.682;2023-06-26T00:55:35;11.65;;;4.60;;
37997;SDS011;24079;51.824;4.682;2023-06-26T00:58:00;12.63;;;4.50;;
37997;SDS011;24079;51.824;4.682;2023-06-26T01:00:26;12.07;;;4.78;;
37997;SDS011;24079;51.824;4.682;2023-06-26T01:02:52;22.08;;;5.47;;
37997;SDS011;24079;51.824;4.682;2023-06-26T01:05:20;12.50;;;4.68;;
37997;SDS011;24079;51.824;4.682;2023-06-26T01:07:49;12.98;;;4.95;;
37997;SDS011;24079;51.824;4.682;2023-06-26T01:10:16;15.93;;;5.00;;
37997;SDS011;24079;51.824;4.682;2023-06-26T01:12:41;16.73;;;4.63;;
37997;SDS011;24079;51.824;4.682;2023-06-26T01:15:08;16.77;;;5.63;;
37997;SDS011;24079;51.824;4.682;2023-06-26T01:17:34;16.65;;;5.75;;
37997;SDS011;24079;51.824;4.682;2023-06-26T01:20:03;20.88;;;5.82;;
37997;SDS011;24079;51.824;4.682;2023-06-26T01:27:54;20.48;;;6.28;;
37997;SDS011;24079;51.824;4.682;2023-06-26T01:30:21;21.80;;;5.68;;
37997;SDS011;24079;51.824;4.682;2023-06-26T01:32:47;24.45;;;6.55;;
37997;SDS011;24079;51.824;4.682;2023-06-26T01:35:14;30.00;;;7.45;;
37997;SDS011;24079;51.824;4.682;2023-06-26T01:37:40;21.90;;;6.40;;
37997;SDS011;24079;51.824;4.682;2023-06-26T01:40:06;25.17;;;7.25;;
37997;SDS011;24079;51.824;4.682;2023-06-26T01:42:33;21.25;;;6.43;;
37997;SDS011;24079;51.824;4.682;2023-06-26T01:45:01;22.70;;;7.10;;
37997;SDS011;24079;51.824;4.682;2023-06-26T01:47:33;23.90;;;6.43;;
37997;SDS011;24079;51.824;4.682;2023-06-26T01:50:23;23.27;;;6.13;;
37997;SDS011;24079;51.824;4.682;2023-06-26T01:53:02;24.80;;;6.60;;
37997;SDS011;24079;51.824;4.682;2023-06-26T01:55:40;22.35;;;6.70;;
37997;SDS011;24079;51.824;4.682;2023-06-26T01:58:07;26.80;;;7.43;;
37997;SDS011;24079;51.824;4.682;2023-06-26T02:00:33;26.73;;;6.45;;
37997;SDS011;24079;51.824;4.682;2023-06-26T02:02:59;24.40;;;6.88;;
37997;SDS011;24079;51.824;4.682;2023-06-26T02:05:25;25.85;;;7.25;;
37997;SDS011;24079;51.824;4.682;2023-06-26T02:07:51;23.20;;;6.90;;
37997;SDS011;24079;51.824;4.682;2023-06-26T02:10:17;24.40;;;7.20;;
37997;SDS011;24079;51.824;4.682;2023-06-26T02:12:42;25.92;;;7.78;;
37997;SDS011;24079;51.824;4.682;2023-06-26T02:15:08;29.77;;;7.38;;
37997;SDS011;24079;51.824;4.682;2023-06-26T02:17:34;26.52;;;7.85;;
37997;SDS011;24079;51.824;4.682;2023-06-26T02:20:00;31.67;;;7.93;;
37997;SDS011;24079;51.824;4.682;2023-06-26T02:22:25;25.65;;;7.15;;
37997;SDS011;24079;51.824;4.682;2023-06-26T02:24:53;23.88;;;7.45;;
37997;SDS011;24079;51.824;4.682;2023-06-26T02:27:19;25.50;;;6.68;;
37997;SDS011;24079;51.824;4.682;2023-06-26T02:29:44;31.80;;;6.75;;
37997;SDS011;24079;51.824;4.682;2023-06-26T02:32:10;33.83;;;7.20;;
37997;SDS011;24079;51.824;4.682;2023-06-26T02:34:36;26.15;;;7.05;;
37997;SDS011;24079;51.824;4.682;2023-06-26T02:37:01;35.17;;;8.35;;
37997;SDS011;24079;51.824;4.682;2023-06-26T02:39:27;26.75;;;7.95;;
37997;SDS011;24079;51.824;4.682;2023-06-26T02:41:53;29.63;;;8.02;;
37997;SDS011;24079;51.824;4.682;2023-06-26T02:44:19;29.02;;;7.88;;
37997;SDS011;24079;51.824;4.682;2023-06-26T02:46:46;32.08;;;8.10;;
37997;SDS011;24079;51.824;4.682;2023-06-26T02:49:11;24.67;;;6.82;;
37997;SDS011;24079;51.824;4.682;2023-06-26T02:51:37;25.20;;;7.10;;
37997;SDS011;24079;51.824;4.682;2023-06-26T02:54:03;28.45;;;7.50;;
37997;SDS011;24079;51.824;4.682;2023-06-26T02:56:29;25.60;;;6.38;;
37997;SDS011;24079;51.824;4.682;2023-06-26T02:58:57;28.23;;;6.93;;
37997;SDS011;24079;51.824;4.682;2023-06-26T03:01:23;24.60;;;6.25;;
37997;SDS011;24079;51.824;4.682;2023-06-26T03:03:49;21.15;;;6.70;;
37997;SDS011;24079;51.824;4.682;2023-06-26T03:06:15;20.27;;;6.30;;
37997;SDS011;24079;51.824;4.682;2023-06-26T03:08:41;20.50;;;5.93;;
37997;SDS011;24079;51.824;4.682;2023-06-26T03:11:07;21.23;;;6.68;;
37997;SDS011;24079;51.824;4.682;2023-06-26T03:13:33;19.85;;;5.72;;
37997;SDS011;24079;51.824;4.682;2023-06-26T03:16:00;27.35;;;6.57;;
37997;SDS011;24079;51.824;4.682;2023-06-26T03:18:26;22.98;;;5.97;;
37997;SDS011;24079;51.824;4.682;2023-06-26T03:20:52;20.27;;;5.65;;
37997;SDS011;24079;51.824;4.682;2023-06-26T03:23:21;13.15;;;5.45;;
37997;SDS011;24079;51.824;4.682;2023-06-26T03:25:47;21.73;;;5.20;;
37997;SDS011;24079;51.824;4.682;2023-06-26T03:28:13;22.50;;;5.97;;
37997;SDS011;24079;51.824;4.682;2023-06-26T03:30:39;18.10;;;4.88;;
37997;SDS011;24079;51.824;4.682;2023-06-26T03:33:04;17.13;;;5.05;;
37997;SDS011;24079;51.824;4.682;2023-06-26T03:35:30;19.05;;;5.00;;
37997;SDS011;24079;51.824;4.682;2023-06-26T03:37:56;14.80;;;5.10;;
37997;SDS011;24079;51.824;4.682;2023-06-26T03:40:23;20.05;;;4.88;;
37997;SDS011;24079;51.824;4.682;2023-06-26T03:42:48;17.77;;;5.05;;
37997;SDS011;24079;51.824;4.682;2023-06-26T03:45:14;19.65;;;4.97;;
37997;SDS011;24079;51.824;4.682;2023-06-26T03:47:40;22.70;;;5.53;;
37997;SDS011;24079;51.824;4.682;2023-06-26T03:50:05;16.02;;;5.07;;
37997;SDS011;24079;51.824;4.682;2023-06-26T03:52:31;22.60;;;5.22;;
37997;SDS011;24079;51.824;4.682;2023-06-26T03:54:57;17.73;;;5.03;;
37997;SDS011;24079;51.824;4.682;2023-06-26T03:57:23;23.33;;;5.65;;
37997;SDS011;24079;51.824;4.682;2023-06-26T03:59:49;20.00;;;5.82;;
37997;SDS011;24079;51.824;4.682;2023-06-26T04:08:59;18.40;;;4.50;;
37997;SDS011;24079;51.824;4.682;2023-06-26T04:11:26;19.48;;;5.38;;
37997;SDS011;24079;51.824;4.682;2023-06-26T04:13:52;18.00;;;5.53;;
37997;SDS011;24079;51.824;4.682;2023-06-26T04:16:20;18.70;;;5.03;;
37997;SDS011;24079;51.824;4.682;2023-06-26T04:18:50;19.73;;;4.97;;
37997;SDS011;24079;51.824;4.682;2023-06-26T04:21:17;18.77;;;5.65;;
37997;SDS011;24079;51.824;4.682;2023-06-26T04:23:44;19.30;;;5.47;;
37997;SDS011;24079;51.824;4.682;2023-06-26T04:26:10;20.00;;;5.60;;
37997;SDS011;24079;51.824;4.682;2023-06-26T04:28:40;17.85;;;4.82;;
37997;SDS011;24079;51.824;4.682;2023-06-26T04:31:07;18.17;;;4.75;;
37997;SDS011;24079;51.824;4.682;2023-06-26T04:33:34;25.08;;;5.20;;
37997;SDS011;24079;51.824;4.682;2023-06-26T04:36:03;19.27;;;4.85;;
37997;SDS011;24079;51.824;4.682;2023-06-26T04:38:30;22.60;;;5.20;;
37997;SDS011;24079;51.824;4.682;2023-06-26T04:40:57;24.63;;;5.75;;
37997;SDS011;24079;51.824;4.682;2023-06-26T04:43:22;20.02;;;5.22;;
37997;SDS011;24079;51.824;4.682;2023-06-26T04:45:48;20.92;;;5.20;;
37997;SDS011;24079;51.824;4.682;2023-06-26T04:48:14;16.88;;;5.20;;
37997;SDS011;24079;51.824;4.682;2023-06-26T04:50:39;19.88;;;4.97;;
37997;SDS011;24079;51.824;4.682;2023-06-26T04:53:05;22.90;;;5.55;;
37997;SDS011;24079;51.824;4.682;2023-06-26T04:55:31;19.70;;;4.70;;
37997;SDS011;24079;51.824;4.682;2023-06-26T04:57:57;14.98;;;3.95;;
37997;SDS011;24079;51.824;4.682;2023-06-26T05:00:22;24.05;;;5.28;;
37997;SDS011;24079;51.824;4.682;2023-06-26T05:02:49;18.25;;;5.38;;
37997;SDS011;24079;51.824;4.682;2023-06-26T05:05:23;20.73;;;5.20;;
37997;SDS011;24079;51.824;4.682;2023-06-26T05:07:49;20.90;;;4.80;;
37997;SDS011;24079;51.824;4.682;2023-06-26T05:10:17;20.13;;;4.45;;
37997;SDS011;24079;51.824;4.682;2023-06-26T05:12:43;18.45;;;4.97;;
37997;SDS011;24079;51.824;4.682;2023-06-26T05:15:09;14.32;;;4.78;;
37997;SDS011;24079;51.824;4.682;2023-06-26T05:17:34;15.52;;;4.30;;
37997;SDS011;24079;51.824;4.682;2023-06-26T05:20:00;18.13;;;4.20;;
37997;SDS011;24079;51.824;4.682;2023-06-26T05:22:26;17.23;;;4.47;;
37997;SDS011;24079;51.824;4.682;2023-06-26T05:24:51;16.23;;;4.18;;
37997;SDS011;24079;51.824;4.682;2023-06-26T05:27:20;11.23;;;3.47;;
37997;SDS011;24079;51.824;4.682;2023-06-26T05:29:49;12.80;;;3.35;;
37997;SDS011;24079;51.824;4.682;2023-06-26T05:32:16;13.18;;;3.50;;
37997;SDS011;24079;51.824;4.682;2023-06-26T05:34:42;10.85;;;3.20;;
37997;SDS011;24079;51.824;4.682;2023-06-26T05:37:18;13.30;;;3.42;;
37997;SDS011;24079;51.824;4.682;2023-06-26T05:39:46;10.65;;;3.53;;
37997;SDS011;24079;51.824;4.682;2023-06-26T05:42:12;15.45;;;3.08;;
37997;SDS011;24079;51.824;4.682;2023-06-26T05:44:38;8.75;;;3.30;;
37997;SDS011;24079;51.824;4.682;2023-06-26T05:47:03;11.80;;;3.10;;
37997;SDS011;24079;51.824;4.682;2023-06-26T05:49:30;12.77;;;3.15;;
37997;SDS011;24079;51.824;4.682;2023-06-26T05:51:55;8.77;;;3.45;;
37997;SDS011;24079;51.824;4.682;2023-06-26T05:54:22;12.13;;;3.00;;
37997;SDS011;24079;51.824;4.682;2023-06-26T05:56:49;9.88;;;3.05;;
37997;SDS011;24079;51.824;4.682;2023-06-26T05:59:20;5.78;;;2.53;;
37997;SDS011;24079;51.824;4.682;2023-06-26T06:01:47;10.50;;;2.53;;
37997;SDS011;24079;51.824;4.682;2023-06-26T06:04:13;10.20;;;2.42;;
37997;SDS011;24079;51.824;4.682;2023-06-26T06:06:39;11.40;;;2.40;;
37997;SDS011;24079;51.824;4.682;2023-06-26T06:09:05;13.88;;;2.88;;
37997;SDS011;24079;51.824;4.682;2023-06-26T06:11:31;9.30;;;2.38;;
37997;SDS011;24079;51.824;4.682;2023-06-26T06:13:57;5.88;;;1.95;;
37997;SDS011;24079;51.824;4.682;2023-06-26T06:16:25;9.18;;;2.50;;
37997;SDS011;24079;51.824;4.682;2023-06-26T06:18:53;6.57;;;1.90;;
37997;SDS011;24079;51.824;4.682;2023-06-26T06:21:19;12.15;;;2.20;;
37997;SDS011;24079;51.824;4.682;2023-06-26T06:23:45;11.02;;;1.70;;
37997;SDS011;24079;51.824;4.682;2023-06-26T06:26:12;8.55;;;1.85;;
37997;SDS011;24079;51.824;4.682;2023-06-26T06:28:38;9.90;;;2.50;;
37997;SDS011;24079;51.824;4.682;2023-06-26T06:31:05;8.65;;;2.47;;
37997;SDS011;24079;51.824;4.682;2023-06-26T06:33:31;14.02;;;2.80;;
37997;SDS011;24079;51.824;4.682;2023-06-26T06:35:57;7.75;;;2.00;;
37997;SDS011;24079;51.824;4.682;2023-06-26T06:38:23;11.70;;;2.38;;
37997;SDS011;24079;51.824;4.682;2023-06-26T06:40:50;7.78;;;1.90;;
37997;SDS011;24079;51.824;4.682;2023-06-26T06:43:16;8.65;;;2.13;;
37997;SDS011;24079;51.824;4.682;2023-06-26T06:45:42;13.15;;;2.13;;
37997;SDS011;24079;51.824;4.682;2023-06-26T06:48:08;8.48;;;2.10;;
37997;SDS011;24079;51.824;4.682;2023-06-26T06:50:34;9.65;;;1.95;;
37997;SDS011;24079;51.824;4.682;2023-06-26T06:53:00;6.65;;;1.67;;
37997;SDS011;24079;51.824;4.682;2023-06-26T06:55:26;6.35;;;2.00;;
37997;SDS011;24079;51.824;4.682;2023-06-26T06:57:52;8.73;;;2.30;;
37997;SDS011;24079;51.824;4.682;2023-06-26T07:00:18;8.30;;;2.00;;
37997;SDS011;24079;51.824;4.682;2023-06-26T07:02:44;10.23;;;2.20;;
37997;SDS011;24079;51.824;4.682;2023-06-26T07:05:10;9.90;;;2.22;;
37997;SDS011;24079;51.824;4.682;2023-06-26T07:07:37;8.85;;;2.00;;
37997;SDS011;24079;51.824;4.682;2023-06-26T07:10:04;10.85;;;2.53;;
37997;SDS011;24079;51.824;4.682;2023-06-26T07:12:34;12.68;;;2.45;;
37997;SDS011;24079;51.824;4.682;2023-06-26T07:15:00;11.65;;;2.50;;
37997;SDS011;24079;51.824;4.682;2023-06-26T07:17:28;12.10;;;2.58;;
37997;SDS011;24079;51.824;4.682;2023-06-26T07:19:54;13.07;;;2.53;;
37997;SDS011;24079;51.824;4.682;2023-06-26T07:22:20;14.95;;;2.40;;
37997;SDS011;24079;51.824;4.682;2023-06-26T07:24:47;8.50;;;2.25;;
37997;SDS011;24079;51.824;4.682;2023-06-26T07:27:16;7.90;;;2.20;;
37997;SDS011;24079;51.824;4.682;2023-06-26T07:29:46;7.40;;;1.95;;
37997;SDS011;24079;51.824;4.682;2023-06-26T07:32:12;12.88;;;2.38;;
37997;SDS011;24079;51.824;4.682;2023-06-26T07:34:38;9.35;;;2.05;;
37997;SDS011;24079;51.824;4.682;2023-06-26T07:37:04;11.38;;;2.10;;
37997;SDS011;24079;51.824;4.682;2023-06-26T07:39:30;11.20;;;2.13;;
37997;SDS011;24079;51.824;4.682;2023-06-26T07:41:56;8.88;;;1.77;;
37997;SDS011;24079;51.824;4.682;2023-06-26T07:44:25;7.85;;;2.03;;
37997;SDS011;24079;51.824;4.682;2023-06-26T07:46:52;10.70;;;1.98;;
37997;SDS011;24079;51.824;4.682;2023-06-26T07:49:18;13.82;;;2.40;;
37997;SDS011;24079;51.824;4.682;2023-06-26T07:51:44;8.70;;;1.70;;
37997;SDS011;24079;51.824;4.682;2023-06-26T07:54:10;8.88;;;2.25;;
37997;SDS011;24079;51.824;4.682;2023-06-26T07:56:51;12.32;;;2.25;;
37997;SDS011;24079;51.824;4.682;2023-06-26T07:59:19;9.00;;;2.00;;
37997;SDS011;24079;51.824;4.682;2023-06-26T08:01:47;5.70;;;1.85;;
37997;SDS011;24079;51.824;4.682;2023-06-26T08:04:12;6.72;;;1.92;;
37997;SDS011;24079;51.824;4.682;2023-06-26T08:06:38;8.18;;;2.15;;
37997;SDS011;24079;51.824;4.682;2023-06-26T08:09:05;6.32;;;1.90;;
37997;SDS011;24079;51.824;4.682;2023-06-26T08:11:32;9.88;;;2.15;;
37997;SDS011;24079;51.824;4.682;2023-06-26T08:14:00;10.63;;;2.42;;
37997;SDS011;24079;51.824;4.682;2023-06-26T08:16:26;8.10;;;2.10;;
37997;SDS011;24079;51.824;4.682;2023-06-26T08:18:51;10.20;;;2.13;;
37997;SDS011;24079;51.824;4.682;2023-06-26T08:21:17;14.13;;;2.38;;
37997;SDS011;24079;51.824;4.682;2023-06-26T08:23:43;11.07;;;2.20;;
37997;SDS011;24079;51.824;4.682;2023-06-26T08:26:09;9.13;;;1.90;;
37997;SDS011;24079;51.824;4.682;2023-06-26T08:28:35;10.27;;;2.10;;
37997;SDS011;24079;51.824;4.682;2023-06-26T08:31:01;8.10;;;2.53;;
37997;SDS011;24079;51.824;4.682;2023-06-26T08:33:27;6.32;;;1.92;;
37997;SDS011;24079;51.824;4.682;2023-06-26T08:35:53;9.98;;;2.08;;
37997;SDS011;24079;51.824;4.682;2023-06-26T08:38:19;7.28;;;2.13;;
37997;SDS011;24079;51.824;4.682;2023-06-26T08:40:47;4.45;;;1.70;;
37997;SDS011;24079;51.824;4.682;2023-06-26T08:43:13;6.28;;;2.10;;
37997;SDS011;24079;51.824;4.682;2023-06-26T08:45:39;5.68;;;1.98;;
37997;SDS011;24079;51.824;4.682;2023-06-26T08:48:09;5.88;;;1.90;;
37997;SDS011;24079;51.824;4.682;2023-06-26T08:50:36;8.77;;;1.92;;
37997;SDS011;24079;51.824;4.682;2023-06-26T08:53:10;5.80;;;2.08;;
37997;SDS011;24079;51.824;4.682;2023-06-26T08:55:49;8.85;;;2.15;;
37997;SDS011;24079;51.824;4.682;2023-06-26T08:58:18;6.50;;;2.22;;
37997;SDS011;24079;51.824;4.682;2023-06-26T09:00:45;8.00;;;2.13;;
37997;SDS011;24079;51.824;4.682;2023-06-26T09:03:11;8.50;;;2.13;;
37997;SDS011;24079;51.824;4.682;2023-06-26T09:05:38;9.35;;;2.33;;
37997;SDS011;24079;51.824;4.682;2023-06-26T09:08:04;5.45;;;1.88;;
37997;SDS011;24079;51.824;4.682;2023-06-26T09:10:30;5.90;;;1.50;;
37997;SDS011;24079;51.824;4.682;2023-06-26T09:12:56;6.68;;;2.10;;
37997;SDS011;24079;51.824;4.682;2023-06-26T09:15:26;7.68;;;2.22;;
37997;SDS011;24079;51.824;4.682;2023-06-26T09:17:55;7.03;;;1.70;;
37997;SDS011;24079;51.824;4.682;2023-06-26T09:20:22;10.23;;;1.77;;
37997;SDS011;24079;51.824;4.682;2023-06-26T09:22:48;8.57;;;1.75;;
37997;SDS011;24079;51.824;4.682;2023-06-26T09:25:13;9.05;;;2.10;;
37997;SDS011;24079;51.824;4.682;2023-06-26T09:27:39;6.18;;;1.70;;
37997;SDS011;24079;51.824;4.682;2023-06-26T09:30:07;7.32;;;1.50;;
37997;SDS011;24079;51.824;4.682;2023-06-26T09:32:37;5.57;;;1.55;;
37997;SDS011;24079;51.824;4.682;2023-06-26T09:40:19;8.53;;;2.33;;
37997;SDS011;24079;51.824;4.682;2023-06-26T09:42:45;6.85;;;2.13;;
37997;SDS011;24079;51.824;4.682;2023-06-26T09:45:17;4.43;;;1.80;;
37997;SDS011;24079;51.824;4.682;2023-06-26T09:47:44;5.40;;;1.60;;
37997;SDS011;24079;51.824;4.682;2023-06-26T09:52:55;7.15;;;1.88;;
37997;SDS011;24079;51.824;4.682;2023-06-26T09:55:21;9.27;;;1.83;;
37997;SDS011;24079;51.824;4.682;2023-06-26T09:57:49;13.02;;;2.70;;
37997;SDS011;24079;51.824;4.682;2023-06-26T10:00:15;8.68;;;2.28;;
37997;SDS011;24079;51.824;4.682;2023-06-26T10:02:41;6.70;;;1.63;;
37997;SDS011;24079;51.824;4.682;2023-06-26T10:05:07;9.95;;;1.52;;
37997;SDS011;24079;51.824;4.682;2023-06-26T10:07:34;6.93;;;1.83;;
37997;SDS011;24079;51.824;4.682;2023-06-26T10:10:02;10.45;;;2.03;;
37997;SDS011;24079;51.824;4.682;2023-06-26T10:12:30;10.40;;;2.00;;
37997;SDS011;24079;51.824;4.682;2023-06-26T10:14:57;7.32;;;2.40;;
37997;SDS011;24079;51.824;4.682;2023-06-26T10:17:24;8.55;;;2.13;;
37997;SDS011;24079;51.824;4.682;2023-06-26T10:19:54;13.00;;;2.22;;
37997;SDS011;24079;51.824;4.682;2023-06-26T10:22:22;7.30;;;2.25;;
37997;SDS011;24079;51.824;4.682;2023-06-26T10:24:55;5.32;;;1.90;;
37997;SDS011;24079;51.824;4.682;2023-06-26T10:27:25;7.93;;;2.25;;
37997;SDS011;24079;51.824;4.682;2023-06-26T10:30:00;4.18;;;1.75;;
37997;SDS011;24079;51.824;4.682;2023-06-26T10:32:28;7.07;;;2.30;;
37997;SDS011;24079;51.824;4.682;2023-06-26T10:34:55;8.98;;;2.08;;
37997;SDS011;24079;51.824;4.682;2023-06-26T10:37:39;10.27;;;1.95;;
37997;SDS011;24079;51.824;4.682;2023-06-26T10:40:09;6.32;;;1.80;;
37997;SDS011;24079;51.824;4.682;2023-06-26T10:42:36;6.40;;;2.20;;
37997;SDS011;24079;51.824;4.682;2023-06-26T10:47:53;7.20;;;1.75;;
37997;SDS011;24079;51.824;4.682;2023-06-26T10:50:27;7.85;;;2.42;;
37997;SDS011;24079;51.824;4.682;2023-06-26T10:56:06;5.18;;;1.55;;
37997;SDS011;24079;51.824;4.682;2023-06-26T11:19:27;6.75;;;1.60;;
37997;SDS011;24079;51.824;4.682;2023-06-26T11:21:57;6.63;;;1.45;;
37997;SDS011;24079;51.824;4.682;2023-06-26T11:24:24;10.40;;;1.97;;
37997;SDS011;24079;51.824;4.682;2023-06-26T11:26:50;5.03;;;1.25;;
37997;SDS011;24079;51.824;4.682;2023-06-26T11:29:16;7.32;;;1.60;;
37997;SDS011;24079;51.824;4.682;2023-06-26T11:31:42;4.07;;;1.30;;
37997;SDS011;24079;51.824;4.682;2023-06-26T11:34:08;11.10;;;1.85;;
37997;SDS011;24079;51.824;4.682;2023-06-26T11:36:37;7.25;;;1.77;;
37997;SDS011;24079;51.824;4.682;2023-06-26T11:39:05;5.65;;;1.40;;
37997;SDS011;24079;51.824;4.682;2023-06-26T11:41:31;4.05;;;1.38;;
37997;SDS011;24079;51.824;4.682;2023-06-26T11:44:02;9.35;;;1.50;;
37997;SDS011;24079;51.824;4.682;2023-06-26T11:46:29;14.60;;;1.73;;
37997;SDS011;24079;51.824;4.682;2023-06-26T11:48:56;5.63;;;1.13;;
37997;SDS011;24079;51.824;4.682;2023-06-26T11:51:22;3.58;;;1.20;;
37997;SDS011;24079;51.824;4.682;2023-06-26T11:53:49;4.10;;;1.17;;
37997;SDS011;24079;51.824;4.682;2023-06-26T11:56:16;3.60;;;1.23;;
37997;SDS011;24079;51.824;4.682;2023-06-26T12:01:37;8.07;;;1.55;;
37997;SDS011;24079;51.824;4.682;2023-06-26T12:04:10;3.45;;;1.42;;
37997;SDS011;24079;51.824;4.682;2023-06-26T12:06:38;2.92;;;1.23;;
37997;SDS011;24079;51.824;4.682;2023-06-26T12:09:09;2.95;;;1.30;;
37997;SDS011;24079;51.824;4.682;2023-06-26T12:11:37;6.22;;;1.70;;
37997;SDS011;24079;51.824;4.682;2023-06-26T12:14:05;6.65;;;1.73;;
37997;SDS011;24079;51.824;4.682;2023-06-26T12:16:33;6.15;;;1.40;;
37997;SDS011;24079;51.824;4.682;2023-06-26T12:19:01;2.17;;;1.10;;
37997;SDS011;24079;51.824;4.682;2023-06-26T12:24:07;8.27;;;1.70;;
37997;SDS011;24079;51.824;4.682;2023-06-26T12:26:35;6.80;;;1.23;;
37997;SDS011;24079;51.824;4.682;2023-06-26T12:29:06;6.65;;;1.38;;
37997;SDS011;24079;51.824;4.682;2023-06-26T12:34:01;2.40;;;1.00;;
37997;SDS011;24079;51.824;4.682;2023-06-26T12:36:27;1.92;;;1.10;;
37997;SDS011;24079;51.824;4.682;2023-06-26T12:38:54;2.70;;;1.20;;
37997;SDS011;24079;51.824;4.682;2023-06-26T12:41:20;4.68;;;1.17;;
37997;SDS011;24079;51.824;4.682;2023-06-26T12:43:49;2.15;;;1.00;;
37997;SDS011;24079;51.824;4.682;2023-06-26T12:46:20;3.85;;;1.15;;
37997;SDS011;24079;51.824;4.682;2023-06-26T12:49:01;3.40;;;1.25;;
37997;SDS011;24079;51.824;4.682;2023-06-26T12:51:28;3.85;;;1.25;;
37997;SDS011;24079;51.824;4.682;2023-06-26T12:53:54;3.00;;;1.23;;
37997;SDS011;24079;51.824;4.682;2023-06-26T12:56:20;4.57;;;1.27;;
37997;SDS011;24079;51.824;4.682;2023-06-26T12:58:46;3.08;;;1.30;;
37997;SDS011;24079;51.824;4.682;2023-06-26T13:01:12;4.93;;;1.63;;
37997;SDS011;24079;51.824;4.682;2023-06-26T13:03:57;5.78;;;1.77;;
37997;SDS011;24079;51.824;4.682;2023-06-26T13:06:24;4.22;;;1.20;;
37997;SDS011;24079;51.824;4.682;2023-06-26T13:08:50;3.15;;;1.17;;
37997;SDS011;24079;51.824;4.682;2023-06-26T13:11:16;5.90;;;1.33;;
37997;SDS011;24079;51.824;4.682;2023-06-26T13:13:42;7.07;;;1.27;;
37997;SDS011;24079;51.824;4.682;2023-06-26T13:16:09;5.00;;;1.52;;
37997;SDS011;24079;51.824;4.682;2023-06-26T13:18:35;3.88;;;1.25;;
37997;SDS011;24079;51.824;4.682;2023-06-26T13:21:01;3.85;;;1.50;;
37997;SDS011;24079;51.824;4.682;2023-06-26T13:23:27;5.25;;;1.02;;
37997;SDS011;24079;51.824;4.682;2023-06-26T13:25:53;6.10;;;1.10;;
37997;SDS011;24079;51.824;4.682;2023-06-26T13:28:19;6.70;;;1.48;;
37997;SDS011;24079;51.824;4.682;2023-06-26T13:30:45;3.95;;;1.40;;
37997;SDS011;24079;51.824;4.682;2023-06-26T13:33:12;6.32;;;1.40;;
37997;SDS011;24079;51.824;4.682;2023-06-26T13:35:38;5.22;;;1.67;;
37997;SDS011;24079;51.824;4.682;2023-06-26T13:38:04;6.25;;;1.40;;
37997;SDS011;24079;51.824;4.682;2023-06-26T13:40:30;5.88;;;1.45;;
37997;SDS011;24079;51.824;4.682;2023-06-26T13:42:56;3.67;;;1.33;;
37997;SDS011;24079;51.824;4.682;2023-06-26T13:45:22;3.30;;;1.40;;
37997;SDS011;24079;51.824;4.682;2023-06-26T13:47:50;4.55;;;1.38;;
37997;SDS011;24079;51.824;4.682;2023-06-26T13:50:16;7.43;;;1.45;;
37997;SDS011;24079;51.824;4.682;2023-06-26T13:52:42;4.55;;;1.35;;
37997;SDS011;24079;51.824;4.682;2023-06-26T13:55:08;5.68;;;1.60;;
37997;SDS011;24079;51.824;4.682;2023-06-26T13:57:34;4.60;;;1.23;;
37997;SDS011;24079;51.824;4.682;2023-06-26T14:02:37;5.35;;;1.42;;
37997;SDS011;24079;51.824;4.682;2023-06-26T14:05:03;8.43;;;1.55;;
37997;SDS011;24079;51.824;4.682;2023-06-26T14:07:29;7.28;;;1.20;;
37997;SDS011;24079;51.824;4.682;2023-06-26T14:09:56;5.22;;;1.52;;
37997;SDS011;24079;51.824;4.682;2023-06-26T14:12:23;4.07;;;1.25;;
37997;SDS011;24079;51.824;4.682;2023-06-26T14:14:50;4.30;;;1.13;;
37997;SDS011;24079;51.824;4.682;2023-06-26T14:17:16;6.07;;;1.40;;
37997;SDS011;24079;51.824;4.682;2023-06-26T14:19:42;4.72;;;1.40;;
37997;SDS011;24079;51.824;4.682;2023-06-26T14:22:08;6.60;;;1.40;;
37997;SDS011;24079;51.824;4.682;2023-06-26T14:24:35;3.20;;;1.40;;
37997;SDS011;24079;51.824;4.682;2023-06-26T14:27:00;4.25;;;1.33;;
37997;SDS011;24079;51.824;4.682;2023-06-26T14:29:26;4.28;;;1.42;;
37997;SDS011;24079;51.824;4.682;2023-06-26T14:31:51;3.30;;;1.33;;
37997;SDS011;24079;51.824;4.682;2023-06-26T14:34:17;3.97;;;1.33;;
37997;SDS011;24079;51.824;4.682;2023-06-26T14:36:43;3.67;;;1.35;;
37997;SDS011;24079;51.824;4.682;2023-06-26T14:39:09;7.15;;;1.63;;
37997;SDS011;24079;51.824;4.682;2023-06-26T14:41:35;4.43;;;1.60;;
37997;SDS011;24079;51.824;4.682;2023-06-26T14:44:01;2.90;;;1.30;;
37997;SDS011;24079;51.824;4.682;2023-06-26T14:46:28;5.80;;;1.77;;
37997;SDS011;24079;51.824;4.682;2023-06-26T14:48:53;4.13;;;1.73;;
37997;SDS011;24079;51.824;4.682;2023-06-26T14:51:20;6.65;;;1.63;;
37997;SDS011;24079;51.824;4.682;2023-06-26T14:53:47;5.35;;;1.60;;
37997;SDS011;24079;51.824;4.682;2023-06-26T14:56:12;8.57;;;2.00;;
37997;SDS011;24079;51.824;4.682;2023-06-26T14:58:38;6.32;;;1.30;;
37997;SDS011;24079;51.824;4.682;2023-06-26T15:01:04;4.22;;;1.63;;
37997;SDS011;24079;51.824;4.682;2023-06-26T15:03:29;7.30;;;1.80;;
37997;SDS011;24079;51.824;4.682;2023-06-26T15:05:55;2.85;;;1.45;;
37997;SDS011;24079;51.824;4.682;2023-06-26T15:08:21;5.40;;;1.73;;
37997;SDS011;24079;51.824;4.682;2023-06-26T15:10:47;4.25;;;1.60;;
37997;SDS011;24079;51.824;4.682;2023-06-26T15:13:13;5.75;;;1.60;;
37997;SDS011;24079;51.824;4.682;2023-06-26T15:15:39;4.55;;;1.63;;
37997;SDS011;24079;51.824;4.682;2023-06-26T15:18:05;6.38;;;1.60;;
37997;SDS011;24079;51.824;4.682;2023-06-26T15:20:31;6.35;;;2.17;;
37997;SDS011;24079;51.824;4.682;2023-06-26T15:22:57;4.82;;;1.98;;
37997;SDS011;24079;51.824;4.682;2023-06-26T15:25:24;8.65;;;1.83;;
37997;SDS011;24079;51.824;4.682;2023-06-26T15:27:50;8.45;;;1.70;;
37997;SDS011;24079;51.824;4.682;2023-06-26T15:30:16;6.60;;;1.77;;
37997;SDS011;24079;51.824;4.682;2023-06-26T15:32:42;7.50;;;1.85;;
37997;SDS011;24079;51.824;4.682;2023-06-26T15:35:08;7.75;;;1.85;;
37997;SDS011;24079;51.824;4.682;2023-06-26T15:37:35;10.52;;;1.70;;